| time (UTC) | temp F | wind direction | speed knots | gust knots | rain 1hr in | rain 24hr in | rain mn in | humidity % | barometer mb |
| 20260906191019 | 92 | 78 | 0.0 | 0.9 | 0.00 | 0.00 | 0.00 | 53 | 1015.6 |
| 20260906190518 | 93 | 71 | 0.0 | 0.9 | 0.00 | 0.00 | 0.00 | 55 | 1015.8 |
| 20260906190118 | 93 | 69 | 0.0 | 0.9 | 0.00 | 0.00 | 0.00 | 55 | 1015.8 |
| 20260906185517 | 92 | 50 | 0.0 | 2.6 | 0.00 | 0.00 | 0.00 | 55 | 1015.7 |
| 20260906185023 | 92 | 46 | 0.0 | 2.6 | 0.00 | 0.00 | 0.00 | 53 | 1016.0 |
| 20260906184545 | 93 | 60 | 0.0 | 2.6 | 0.00 | 0.00 | 0.00 | 53 | 1016.2 |
| 20260906184017 | 93 | 65 | 0.0 | 0.9 | 0.00 | 0.00 | 0.00 | 55 | 1016.3 |
| 20260906183519 | 92 | 80 | 0.0 | 0.9 | 0.00 | 0.00 | 0.00 | 53 | 1016.5 |
| 20260906183053 | 92 | 67 | 0.0 | 4.3 | 0.00 | 0.00 | 0.00 | 55 | 1016.5 |
| 20260906182517 | 92 | 5 | 0.9 | 4.3 | 0.00 | 0.00 | 0.00 | 55 | 1016.6 |
| 20260906182017 | 91 | 25 | 0.0 | 3.5 | 0.00 | 0.00 | 0.00 | 57 | 1016.7 |
| 20260906181544 | 90 | 33 | 0.0 | 7.0 | 0.00 | 0.00 | 0.00 | 60 | 1016.8 |
| 20260906181021 | 90 | 80 | 2.6 | 7.0 | 0.00 | 0.00 | 0.00 | 59 | 1017.0 |
| 20260906180518 | 90 | 11 | 1.7 | 7.0 | 0.00 | 0.00 | 0.00 | 62 | 1017.0 |
| 20260906180046 | 89 | 19 | 2.6 | 7.0 | 0.00 | 0.00 | 0.00 | 61 | 1017.4 |
| 20260906175522 | 89 | 352 | 3.5 | 7.0 | 0.00 | 0.00 | 0.00 | 61 | 1017.3 |
| 20260906175019 | 88 | 15 | 3.5 | 6.1 | 0.00 | 0.00 | 0.00 | 60 | 1017.4 |
| 20260906174544 | 88 | 52 | 3.5 | 7.0 | 0.00 | 0.00 | 0.00 | 60 | 1017.5 |
| 20260906174020 | 88 | 26 | 3.5 | 6.1 | 0.00 | 0.00 | 0.00 | 59 | 1017.5 |
| 20260906173517 | 88 | 56 | 2.6 | 4.3 | 0.00 | 0.00 | 0.00 | 59 | 1017.5 |
| 20260906173048 | 88 | 5 | 0.9 | 5.2 | 0.00 | 0.00 | 0.00 | 61 | 1017.5 |
| 20260906172518 | 88 | 345 | 1.7 | 7.0 | 0.00 | 0.00 | 0.00 | 60 | 1017.6 |
| 20260906172016 | 88 | 16 | 1.7 | 7.0 | 0.00 | 0.00 | 0.00 | 61 | 1017.7 |
| 20260906171538 | 88 | 22 | 1.7 | 4.3 | 0.00 | 0.00 | 0.00 | 62 | 1017.7 |
| 20260906171018 | 88 | 77 | 2.6 | 4.3 | 0.00 | 0.00 | 0.00 | 59 | 1017.8 |
| 20260906170520 | 88 | 47 | 1.7 | 4.3 | 0.00 | 0.00 | 0.00 | 60 | 1017.7 |
| 20260906170046 | 88 | 48 | 2.6 | 4.3 | 0.00 | 0.00 | 0.00 | 60 | 1017.8 |
| 20260906165520 | 88 | 360 | 1.7 | 4.3 | 0.00 | 0.00 | 0.00 | 61 | 1017.8 |
| 20260906165018 | 88 | 9 | 1.7 | 3.5 | 0.00 | 0.00 | 0.00 | 59 | 1017.8 |
| 20260906164545 | 88 | 74 | 0.9 | 2.6 | 0.00 | 0.00 | 0.00 | 59 | 1017.9 |
| 20260906164020 | 88 | 68 | 0.0 | 5.2 | 0.00 | 0.00 | 0.00 | 58 | 1018.0 |
| 20260906163520 | 88 | 76 | 1.7 | 7.0 | 0.00 | 0.00 | 0.00 | 58 | 1017.9 |
| 20260906163044 | 89 | 38 | 2.6 | 5.2 | 0.00 | 0.00 | 0.00 | 58 | 1018.1 |
| 20260906162519 | 89 | 15 | 2.6 | 5.2 | 0.00 | 0.00 | 0.00 | 57 | 1018.3 |
| 20260906162016 | 89 | 11 | 2.6 | 6.1 | 0.00 | 0.00 | 0.00 | 56 | 1018.0 |
| 20260906161546 | 89 | 56 | 2.6 | 4.3 | 0.00 | 0.00 | 0.00 | 56 | 1018.0 |
| 20260906161019 | 89 | 348 | 1.7 | 7.0 | 0.00 | 0.00 | 0.00 | 59 | 1018.0 |
| 20260906160520 | 89 | 23 | 2.6 | 7.0 | 0.00 | 0.00 | 0.00 | 57 | 1018.0 |
| 20260906160047 | 89 | 351 | 2.6 | 5.2 | 0.00 | 0.00 | 0.00 | 59 | 1018.2 |
| 20260906155521 | 89 | 32 | 3.5 | 7.8 | 0.00 | 0.00 | 0.00 | 59 | 1018.2 |
| 20260906155020 | 88 | 5 | 3.5 | 7.8 | 0.00 | 0.00 | 0.00 | 60 | 1018.0 |
| 20260906154544 | 88 | 325 | 1.7 | 4.3 | 0.00 | 0.00 | 0.00 | 61 | 1018.0 |
| 20260906154019 | 87 | 336 | 0.0 | 4.3 | 0.00 | 0.00 | 0.00 | 68 | 1018.0 |
| 20260906153519 | 86 | 337 | 1.7 | 4.3 | 0.00 | 0.00 | 0.00 | 65 | 1017.9 |
| 20260906153047 | 86 | 348 | 2.6 | 4.3 | 0.00 | 0.00 | 0.00 | 65 | 1017.7 |
| 20260906152515 | 85 | 304 | 0.9 | 2.6 | 0.00 | 0.00 | 0.00 | 69 | 1017.8 |
| 20260906152019 | 84 | 329 | 0.0 | 1.7 | 0.00 | 0.00 | 0.00 | 72 | 1017.6 |
| 20260906151545 | 83 | 335 | 0.0 | 3.5 | 0.00 | 0.00 | 0.00 | 71 | 1017.6 |
| 20260906151023 | 83 | 9 | 0.9 | 3.5 | 0.00 | 0.00 | 0.00 | 69 | 1017.5 |
| 20260906150520 | 82 | 328 | 0.0 | 2.6 | 0.00 | 0.00 | 0.00 | 72 | 1017.4 |
| 20260906150044 | 82 | 328 | 0.0 | 5.2 | 0.00 | 0.00 | 0.00 | 72 | 1017.5 |
| 20260906145521 | 81 | 314 | 0.9 | 8.7 | 0.00 | 0.00 | 0.00 | 72 | 1017.5 |
| 20260906145025 | 81 | 360 | 4.3 | 10.4 | 0.00 | 0.00 | 0.00 | 72 | 1017.7 |
| 20260906144544 | 81 | 150 | 0.0 | 10.4 | 0.00 | 0.00 | 0.00 | 69 | 1017.0 |
| 20260906144016 | 81 | 355 | 6.1 | 9.6 | 0.00 | 0.00 | 0.00 | 73 | 1017.7 |
| 20260906143520 | 81 | 84 | 0.0 | 0.0 | 0.00 | 0.00 | 0.00 | 72 | 1017.1 |
| 20260906143048 | 80 | 84 | 0.0 | 0.0 | 0.00 | 0.00 | 0.00 | 72 | 1017.0 |
| 20260906142523 | 80 | 84 | 0.0 | 0.0 | 0.00 | 0.00 | 0.00 | 75 | 1016.8 |
| 20260906142022 | 79 | 84 | 0.0 | 0.0 | 0.00 | 0.00 | 0.00 | 75 | 1016.8 |
| 20260906141543 | 79 | 84 | 0.0 | 0.0 | 0.00 | 0.00 | 0.00 | 76 | 1016.9 |
| 20260906141018 | 78 | 84 | 0.0 | 0.0 | 0.00 | 0.00 | 0.00 | 77 | 1016.9 |
| 20260906140523 | 78 | 84 | 0.0 | 0.0 | 0.00 | 0.00 | 0.00 | 81 | 1017.0 |
| 20260906140052 | 77 | 84 | 0.0 | 0.0 | 0.00 | 0.00 | 0.00 | 83 | 1016.8 |
| 20260906135516 | 77 | 84 | 0.0 | 0.0 | 0.00 | 0.00 | 0.00 | 84 | 1017.0 |
| 20260906135018 | 76 | 84 | 0.0 | 0.0 | 0.00 | 0.00 | 0.00 | 84 | 1017.0 |
| 20260906134545 | 76 | 84 | 0.0 | 0.0 | 0.00 | 0.00 | 0.00 | 85 | 1017.2 |
| 20260906134020 | 75 | 84 | 0.0 | 0.0 | 0.00 | 0.00 | 0.00 | 85 | 1016.8 |
| 20260906133518 | 75 | 84 | 0.0 | 0.0 | 0.00 | 0.00 | 0.00 | 86 | 1016.9 |
| 20260906133100 | 74 | 84 | 0.0 | 0.0 | 0.00 | 0.00 | 0.00 | 88 | 1016.7 |
| 20260906132519 | 73 | 84 | 0.0 | 0.0 | 0.00 | 0.00 | 0.00 | 90 | 1016.6 |
| 20260906132017 | 72 | 84 | 0.0 | 0.0 | 0.00 | 0.00 | 0.00 | 91 | 1016.5 |
| 20260906131552 | 71 | 84 | 0.0 | 0.0 | 0.00 | 0.00 | 0.00 | 92 | 1016.5 |
| 20260906131019 | 71 | 84 | 0.0 | 0.0 | 0.00 | 0.00 | 0.00 | 91 | 1016.6 |
| 20260906130519 | 70 | 84 | 0.0 | 0.0 | 0.00 | 0.00 | 0.00 | 91 | 1016.5 |
| 20260906130051 | 70 | 84 | 0.0 | 0.0 | 0.00 | 0.00 | 0.00 | 90 | 1016.4 |
| 20260906125518 | 70 | 84 | 0.0 | 0.0 | 0.00 | 0.00 | 0.00 | 90 | 1016.3 |
| 20260906125019 | 69 | 84 | 0.0 | 0.0 | 0.00 | 0.00 | 0.00 | 90 | 1016.2 |
| 20260906124552 | 69 | 84 | 0.0 | 0.0 | 0.00 | 0.00 | 0.00 | 90 | 1016.0 |
| 20260906124018 | 69 | 84 | 0.0 | 0.0 | 0.00 | 0.00 | 0.00 | 90 | 1015.9 |
| 20260906123518 | 69 | 84 | 0.0 | 0.0 | 0.00 | 0.00 | 0.00 | 90 | 1015.9 |
| 20260906123047 | 69 | 84 | 0.0 | 0.0 | 0.00 | 0.00 | 0.00 | 90 | 1015.8 |
| 20260906122520 | 68 | 84 | 0.0 | 0.0 | 0.00 | 0.00 | 0.00 | 89 | 1015.7 |
| 20260906122021 | 68 | 84 | 0.0 | 0.0 | 0.00 | 0.00 | 0.00 | 89 | 1015.6 |
| 20260906121543 | 68 | 84 | 0.0 | 0.0 | 0.00 | 0.00 | 0.00 | 89 | 1015.6 |
| 20260906121019 | 68 | 84 | 0.0 | 0.0 | 0.00 | 0.00 | 0.00 | 88 | 1015.5 |
| 20260906120521 | 68 | 84 | 0.0 | 0.0 | 0.00 | 0.00 | 0.00 | 89 | 1015.4 |
| 20260906120050 | 68 | 84 | 0.0 | 0.0 | 0.00 | 0.00 | 0.00 | 88 | 1015.2 |
| 20260906115521 | 69 | 84 | 0.0 | 0.0 | 0.00 | 0.00 | 0.00 | 89 | 1015.3 |
| 20260906115022 | 69 | 84 | 0.0 | 0.0 | 0.00 | 0.00 | 0.00 | 89 | 1015.3 |
| 20260906114546 | 69 | 84 | 0.0 | 0.0 | 0.00 | 0.00 | 0.00 | 89 | 1015.3 |
| 20260906114018 | 69 | 84 | 0.0 | 0.0 | 0.00 | 0.00 | 0.00 | 89 | 1015.2 |
| 20260906113519 | 69 | 84 | 0.0 | 0.0 | 0.00 | 0.00 | 0.00 | 89 | 1015.2 |
| 20260906113045 | 69 | 84 | 0.0 | 0.0 | 0.00 | 0.00 | 0.00 | 89 | 1015.0 |
| 20260906112517 | 69 | 84 | 0.0 | 0.0 | 0.00 | 0.00 | 0.00 | 89 | 1015.1 |
| 20260906112019 | 69 | 84 | 0.0 | 0.0 | 0.00 | 0.00 | 0.00 | 89 | 1015.0 |
| 20260906111553 | 69 | 84 | 0.0 | 0.0 | 0.00 | 0.00 | 0.00 | 89 | 1014.9 |
| 20260906111016 | 69 | 84 | 0.0 | 0.0 | 0.00 | 0.00 | 0.00 | 89 | 1014.9 |
| 20260906110516 | 69 | 84 | 0.0 | 0.0 | 0.00 | 0.00 | 0.00 | 89 | 1014.9 |
| 20260906110055 | 69 | 84 | 0.0 | 0.0 | 0.00 | 0.00 | 0.00 | 89 | 1014.9 |
| 20260906105521 | 69 | 84 | 0.0 | 0.0 | 0.00 | 0.00 | 0.00 | 89 | 1014.9 |
| 20260906105018 | 69 | 84 | 0.0 | 0.0 | 0.00 | 0.00 | 0.00 | 89 | 1014.9 |
| 20260906104546 | 69 | 84 | 0.0 | 0.0 | 0.00 | 0.00 | 0.00 | 89 | 1014.9 |
| 20260906104019 | 69 | 84 | 0.0 | 0.0 | 0.00 | 0.00 | 0.00 | 89 | 1014.8 |
| 20260906103519 | 69 | 84 | 0.0 | 0.0 | 0.00 | 0.00 | 0.00 | 89 | 1014.9 |
| 20260906103044 | 69 | 84 | 0.0 | 0.0 | 0.00 | 0.00 | 0.00 | 89 | 1014.9 |
| 20260906102520 | 69 | 84 | 0.0 | 0.0 | 0.00 | 0.00 | 0.00 | 88 | 1014.7 |
| 20260906102017 | 69 | 84 | 0.0 | 0.0 | 0.00 | 0.00 | 0.00 | 88 | 1014.7 |
| 20260906101553 | 69 | 84 | 0.0 | 0.0 | 0.00 | 0.00 | 0.00 | 88 | 1014.7 |
| 20260906101019 | 69 | 84 | 0.0 | 0.0 | 0.00 | 0.00 | 0.00 | 88 | 1014.7 |
| 20260906100521 | 69 | 84 | 0.0 | 0.0 | 0.00 | 0.00 | 0.00 | 87 | 1014.8 |
| 20260906100049 | 69 | 84 | 0.0 | 0.0 | 0.00 | 0.00 | 0.00 | 87 | 1014.7 |
| 20260906095517 | 69 | 84 | 0.0 | 0.0 | 0.00 | 0.00 | 0.00 | 87 | 1014.6 |
| 20260906095018 | 69 | 84 | 0.0 | 0.0 | 0.00 | 0.00 | 0.00 | 87 | 1014.6 |
| 20260906094600 | 69 | 84 | 0.0 | 0.0 | 0.00 | 0.00 | 0.00 | 87 | 1014.6 |
| 20260906094019 | 69 | 84 | 0.0 | 0.0 | 0.00 | 0.00 | 0.00 | 87 | 1014.6 |
| 20260906093520 | 69 | 84 | 0.0 | 0.0 | 0.00 | 0.00 | 0.00 | 87 | 1014.6 |
| 20260906093107 | 70 | 84 | 0.0 | 0.0 | 0.00 | 0.00 | 0.00 | 86 | 1014.6 |
| 20260906092517 | 70 | 84 | 0.0 | 0.0 | 0.00 | 0.00 | 0.00 | 86 | 1014.6 |
| 20260906092020 | 70 | 84 | 0.0 | 0.0 | 0.00 | 0.00 | 0.00 | 86 | 1014.7 |
| 20260906091550 | 70 | 84 | 0.0 | 0.0 | 0.00 | 0.00 | 0.00 | 86 | 1014.7 |
| 20260906091016 | 70 | 84 | 0.0 | 0.0 | 0.00 | 0.00 | 0.00 | 85 | 1014.8 |
| 20260906090516 | 70 | 84 | 0.0 | 0.0 | 0.00 | 0.00 | 0.00 | 85 | 1014.9 |
| 20260906090114 | 70 | 84 | 0.0 | 0.0 | 0.00 | 0.00 | 0.00 | 85 | 1014.8 |
| 20260906085519 | 70 | 84 | 0.0 | 0.0 | 0.00 | 0.00 | 0.00 | 85 | 1014.8 |
| 20260906085019 | 70 | 84 | 0.0 | 0.0 | 0.00 | 0.00 | 0.00 | 85 | 1014.8 |
| 20260906084601 | 70 | 84 | 0.0 | 0.0 | 0.00 | 0.00 | 0.00 | 85 | 1014.7 |
| 20260906084018 | 70 | 84 | 0.0 | 0.0 | 0.00 | 0.00 | 0.00 | 85 | 1014.7 |
| 20260906083519 | 70 | 84 | 0.0 | 0.0 | 0.00 | 0.00 | 0.00 | 85 | 1014.7 |
| 20260906083053 | 71 | 84 | 0.0 | 0.0 | 0.00 | 0.00 | 0.00 | 85 | 1014.7 |
| 20260906082517 | 71 | 84 | 0.0 | 0.0 | 0.00 | 0.00 | 0.00 | 85 | 1014.7 |
| 20260906082017 | 71 | 84 | 0.0 | 0.0 | 0.00 | 0.00 | 0.00 | 85 | 1014.7 |
| 20260906081551 | 71 | 84 | 0.0 | 0.0 | 0.00 | 0.00 | 0.00 | 85 | 1014.8 |
| 20260906081021 | 71 | 84 | 0.0 | 0.0 | 0.00 | 0.00 | 0.00 | 85 | 1014.7 |
| 20260906080518 | 71 | 84 | 0.0 | 0.0 | 0.00 | 0.00 | 0.00 | 85 | 1014.6 |
| 20260906080106 | 71 | 84 | 0.0 | 0.0 | 0.00 | 0.00 | 0.00 | 86 | 1014.6 |
| 20260906075517 | 70 | 84 | 0.0 | 0.0 | 0.00 | 0.00 | 0.00 | 86 | 1014.6 |
| 20260906075018 | 70 | 84 | 0.0 | 0.0 | 0.00 | 0.00 | 0.00 | 86 | 1014.8 |
| 20260906074600 | 70 | 84 | 0.0 | 0.0 | 0.00 | 0.00 | 0.00 | 86 | 1014.7 |
| 20260906074021 | 70 | 84 | 0.0 | 0.0 | 0.00 | 0.00 | 0.00 | 86 | 1014.7 |
| 20260906073518 | 70 | 84 | 0.0 | 0.0 | 0.00 | 0.00 | 0.00 | 86 | 1014.5 |
| 20260906073054 | 71 | 84 | 0.0 | 0.0 | 0.00 | 0.00 | 0.00 | 86 | 1014.5 |
| 20260906072519 | 71 | 84 | 0.0 | 0.0 | 0.00 | 0.00 | 0.00 | 86 | 1014.5 |
| 20260906072018 | 71 | 84 | 0.0 | 0.0 | 0.00 | 0.00 | 0.00 | 86 | 1014.4 |
| 20260906071552 | 71 | 84 | 0.0 | 0.0 | 0.00 | 0.00 | 0.00 | 86 | 1014.4 |
| 20260906071021 | 71 | 84 | 0.0 | 0.0 | 0.00 | 0.00 | 0.00 | 86 | 1014.4 |
| 20260906070522 | 71 | 84 | 0.0 | 0.0 | 0.00 | 0.00 | 0.00 | 86 | 1014.4 |
| 20260906070045 | 71 | 84 | 0.0 | 0.0 | 0.00 | 0.00 | 0.00 | 85 | 1014.5 |
| 20260906065526 | 71 | 84 | 0.0 | 0.0 | 0.00 | 0.00 | 0.00 | 85 | 1014.5 |
| 20260906065021 | 71 | 84 | 0.0 | 0.0 | 0.00 | 0.00 | 0.00 | 85 | 1014.5 |
| 20260906064551 | 71 | 84 | 0.0 | 0.0 | 0.00 | 0.00 | 0.00 | 85 | 1014.5 |
| 20260906064021 | 71 | 84 | 0.0 | 0.0 | 0.00 | 0.00 | 0.00 | 85 | 1014.5 |
| 20260906063525 | 71 | 84 | 0.0 | 0.0 | 0.00 | 0.00 | 0.00 | 85 | 1014.4 |
| 20260906063048 | 71 | 84 | 0.0 | 0.0 | 0.00 | 0.00 | 0.00 | 84 | 1014.4 |
| 20260906062518 | 72 | 84 | 0.0 | 0.0 | 0.00 | 0.00 | 0.00 | 84 | 1014.3 |
| 20260906062020 | 72 | 84 | 0.0 | 0.0 | 0.00 | 0.00 | 0.00 | 84 | 1014.3 |
| 20260906061602 | 72 | 84 | 0.0 | 0.0 | 0.00 | 0.00 | 0.00 | 84 | 1014.3 |
| 20260906061019 | 72 | 84 | 0.0 | 0.0 | 0.00 | 0.00 | 0.00 | 84 | 1014.4 |
| 20260906060517 | 72 | 84 | 0.0 | 0.0 | 0.00 | 0.00 | 0.00 | 84 | 1014.3 |
| 20260906060051 | 72 | 84 | 0.0 | 0.0 | 0.00 | 0.00 | 0.00 | 84 | 1014.4 |
| 20260906055519 | 72 | 84 | 0.0 | 0.0 | 0.00 | 0.00 | 0.00 | 84 | 1014.4 |
| 20260906055020 | 72 | 84 | 0.0 | 0.0 | 0.00 | 0.00 | 0.00 | 83 | 1014.4 |
| 20260906054553 | 72 | 84 | 0.0 | 0.0 | 0.00 | 0.00 | 0.00 | 83 | 1014.4 |
| 20260906054018 | 72 | 84 | 0.0 | 0.0 | 0.00 | 0.00 | 0.00 | 83 | 1014.4 |
| 20260906053519 | 72 | 84 | 0.0 | 0.0 | 0.00 | 0.00 | 0.00 | 83 | 1014.3 |
| 20260906053110 | 73 | 84 | 0.0 | 0.0 | 0.00 | 0.00 | 0.00 | 82 | 1014.3 |
| 20260906052517 | 73 | 84 | 0.0 | 0.0 | 0.00 | 0.00 | 0.00 | 82 | 1014.3 |
| 20260906052020 | 73 | 84 | 0.0 | 0.0 | 0.00 | 0.00 | 0.00 | 82 | 1014.4 |
| 20260906051552 | 73 | 84 | 0.0 | 0.0 | 0.00 | 0.00 | 0.00 | 82 | 1014.3 |
| 20260906051024 | 73 | 84 | 0.0 | 0.0 | 0.00 | 0.00 | 0.00 | 82 | 1014.3 |
| 20260906050519 | 73 | 84 | 0.0 | 0.0 | 0.00 | 0.00 | 0.00 | 81 | 1014.2 |
| 20260906050101 | 73 | 84 | 0.0 | 0.0 | 0.00 | 0.00 | 0.00 | 81 | 1014.0 |
| 20260906045520 | 74 | 84 | 0.0 | 0.0 | 0.00 | 0.00 | 0.00 | 81 | 1014.1 |
| 20260906045018 | 74 | 84 | 0.0 | 0.0 | 0.00 | 0.00 | 0.00 | 81 | 1014.1 |
| 20260906044611 | 74 | 84 | 0.0 | 0.0 | 0.00 | 0.00 | 0.00 | 80 | 1014.2 |
| 20260906044023 | 74 | 84 | 0.0 | 0.0 | 0.00 | 0.00 | 0.00 | 80 | 1014.1 |
| 20260906043517 | 74 | 84 | 0.0 | 0.0 | 0.00 | 0.00 | 0.00 | 80 | 1014.1 |
| 20260906043039 | 74 | 84 | 0.0 | 0.0 | 0.00 | 0.00 | 0.00 | 80 | 1014.1 |
| 20260906042520 | 74 | 84 | 0.0 | 0.0 | 0.00 | 0.00 | 0.00 | 79 | 1014.2 |
| 20260906042019 | 75 | 84 | 0.0 | 0.0 | 0.00 | 0.00 | 0.00 | 79 | 1014.3 |
| 20260906041548 | 75 | 84 | 0.0 | 0.0 | 0.00 | 0.00 | 0.00 | 79 | 1014.3 |
| 20260906041018 | 75 | 84 | 0.0 | 0.0 | 0.00 | 0.00 | 0.00 | 79 | 1014.3 |
| 20260906040517 | 75 | 84 | 0.0 | 0.0 | 0.00 | 0.00 | 0.00 | 79 | 1014.3 |
| 20260906040043 | 75 | 84 | 0.0 | 0.0 | 0.00 | 0.00 | 0.00 | 78 | 1014.4 |
| 20260906035518 | 76 | 84 | 0.0 | 0.0 | 0.00 | 0.00 | 0.00 | 78 | 1014.4 |
| 20260906035016 | 76 | 84 | 0.0 | 0.0 | 0.00 | 0.00 | 0.00 | 77 | 1014.4 |
| 20260906034543 | 76 | 84 | 0.0 | 0.0 | 0.00 | 0.00 | 0.00 | 76 | 1014.3 |
| 20260906034018 | 76 | 111 | 0.0 | 0.0 | 0.00 | 0.00 | 0.00 | 76 | 1014.2 |
| 20260906033515 | 77 | 111 | 0.0 | 0.0 | 0.00 | 0.00 | 0.00 | 76 | 1014.1 |
| 20260906033045 | 77 | 111 | 0.0 | 0.0 | 0.00 | 0.00 | 0.00 | 76 | 1014.2 |
| 20260906032517 | 77 | 111 | 0.0 | 0.0 | 0.00 | 0.00 | 0.00 | 76 | 1014.2 |
| 20260906032019 | 77 | 111 | 0.0 | 0.0 | 0.00 | 0.00 | 0.00 | 75 | 1014.1 |
| 20260906031542 | 77 | 111 | 0.0 | 0.0 | 0.00 | 0.00 | 0.00 | 75 | 1014.0 |
| 20260906031016 | 77 | 111 | 0.0 | 0.0 | 0.00 | 0.00 | 0.00 | 74 | 1014.0 |
| 20260906030518 | 78 | 111 | 0.0 | 0.0 | 0.00 | 0.00 | 0.00 | 75 | 1013.7 |
| 20260906030041 | 78 | 111 | 0.0 | 0.0 | 0.00 | 0.00 | 0.00 | 75 | 1013.7 |
| 20260906025521 | 78 | 111 | 0.0 | 0.0 | 0.00 | 0.00 | 0.00 | 74 | 1013.8 |
| 20260906025020 | 78 | 111 | 0.0 | 0.0 | 0.00 | 0.00 | 0.00 | 73 | 1013.8 |
| 20260906024605 | 79 | 111 | 0.0 | 0.0 | 0.00 | 0.00 | 0.00 | 73 | 1013.6 |
| 20260906024017 | 79 | 111 | 0.0 | 0.0 | 0.00 | 0.00 | 0.00 | 73 | 1013.6 |
| 20260906023518 | 79 | 111 | 0.0 | 0.0 | 0.00 | 0.00 | 0.00 | 72 | 1013.5 |
| 20260906023041 | 80 | 111 | 0.0 | 0.0 | 0.00 | 0.00 | 0.00 | 71 | 1013.4 |
| 20260906022518 | 81 | 111 | 0.0 | 0.0 | 0.00 | 0.00 | 0.00 | 70 | 1013.3 |
| 20260906022021 | 81 | 229 | 0.0 | 0.0 | 0.00 | 0.00 | 0.00 | 68 | 1013.2 |
| 20260906021542 | 82 | 229 | 0.0 | 0.0 | 0.00 | 0.00 | 0.00 | 68 | 1013.1 |
| 20260906021016 | 82 | 229 | 0.0 | 0.0 | 0.00 | 0.00 | 0.00 | 66 | 1013.1 |
| 20260906020518 | 82 | 229 | 0.0 | 0.0 | 0.00 | 0.00 | 0.00 | 65 | 1012.8 |
| 20260906020045 | 83 | 229 | 0.0 | 0.0 | 0.00 | 0.00 | 0.00 | 65 | 1012.5 |
| 20260906015520 | 83 | 229 | 0.0 | 0.0 | 0.00 | 0.00 | 0.00 | 65 | 1012.5 |
| 20260906015019 | 83 | 229 | 0.0 | 0.0 | 0.00 | 0.00 | 0.00 | 65 | 1012.5 |
| 20260906014546 | 83 | 229 | 0.0 | 0.0 | 0.00 | 0.00 | 0.00 | 63 | 1012.6 |
| 20260906014019 | 83 | 229 | 0.0 | 0.0 | 0.00 | 0.00 | 0.00 | 64 | 1012.3 |
| 20260906013522 | 84 | 229 | 0.0 | 0.0 | 0.00 | 0.00 | 0.00 | 65 | 1012.2 |
| 20260906013041 | 84 | 229 | 0.0 | 0.0 | 0.00 | 0.00 | 0.00 | 66 | 1012.1 |
| 20260906012518 | 84 | 229 | 0.0 | 0.9 | 0.00 | 0.00 | 0.00 | 65 | 1012.1 |
| 20260906012022 | 85 | 213 | 0.0 | 0.9 | 0.00 | 0.00 | 0.00 | 65 | 1012.2 |
| 20260906011555 | 85 | 178 | 0.0 | 0.0 | 0.00 | 0.00 | 0.00 | 62 | 1012.1 |
| 20260906011020 | 85 | 178 | 0.0 | 0.0 | 0.00 | 0.00 | 0.00 | 62 | 1012.4 |
| 20260906010524 | 86 | 178 | 0.0 | 0.0 | 0.00 | 0.00 | 0.00 | 63 | 1012.3 |
| 20260906010115 | 86 | 178 | 0.0 | 0.0 | 0.00 | 0.00 | 0.00 | 62 | 1012.3 |
| 20260906005519 | 87 | 178 | 0.0 | 0.0 | 0.00 | 0.00 | 0.00 | 60 | 1012.4 |
| 20260906005021 | 88 | 178 | 0.0 | 0.0 | 0.00 | 0.00 | 0.00 | 58 | 1012.4 |
| 20260906004547 | 88 | 160 | 0.0 | 0.0 | 0.00 | 0.00 | 0.00 | 56 | 1012.5 |
| 20260906004018 | 89 | 160 | 0.0 | 0.0 | 0.00 | 0.00 | 0.00 | 55 | 1012.5 |
| 20260906003518 | 89 | 167 | 0.0 | 0.0 | 0.00 | 0.00 | 0.00 | 55 | 1012.5 |
| 20260906003047 | 90 | 150 | 0.0 | 0.0 | 0.00 | 0.00 | 0.00 | 54 | 1012.5 |
| 20260906002519 | 90 | 150 | 0.0 | 0.0 | 0.00 | 0.00 | 0.00 | 54 | 1012.6 |
| 20260906002018 | 91 | 150 | 0.0 | 0.0 | 0.00 | 0.00 | 0.00 | 52 | 1012.7 |
| 20260906001559 | 91 | 148 | 0.0 | 0.0 | 0.00 | 0.00 | 0.00 | 51 | 1012.7 |
| 20260906001022 | 91 | 143 | 0.0 | 0.0 | 0.00 | 0.00 | 0.00 | 51 | 1012.7 |
| 20260906000520 | 92 | 145 | 0.0 | 0.0 | 0.00 | 0.00 | 0.00 | 50 | 1012.8 |
| 20260906000046 | 92 | 137 | 0.0 | 0.0 | 0.00 | 0.00 | 0.00 | 49 | 1012.8 |
| 20260905235519 | 92 | 139 | 0.0 | 0.0 | 0.00 | 0.00 | 0.00 | 48 | 1012.8 |
| 20260905235022 | 93 | 140 | 0.0 | 0.0 | 0.00 | 0.00 | 0.00 | 48 | 1012.7 |
| 20260905234544 | 93 | 144 | 0.0 | 0.0 | 0.00 | 0.00 | 0.00 | 48 | 1012.9 |
| 20260905234018 | 93 | 147 | 0.0 | 0.0 | 0.00 | 0.00 | 0.00 | 47 | 1012.8 |
| 20260905233518 | 93 | 153 | 0.0 | 0.0 | 0.00 | 0.00 | 0.00 | 48 | 1012.8 |
| 20260905233045 | 93 | 161 | 0.0 | 0.0 | 0.00 | 0.00 | 0.00 | 48 | 1012.8 |
| 20260905232519 | 93 | 179 | 0.0 | 0.0 | 0.00 | 0.00 | 0.00 | 47 | 1012.8 |
| 20260905232019 | 93 | 158 | 0.0 | 0.0 | 0.00 | 0.00 | 0.00 | 47 | 1012.6 |
| 20260905231545 | 93 | 163 | 0.0 | 0.0 | 0.00 | 0.00 | 0.00 | 48 | 1012.7 |
| 20260905231020 | 93 | 134 | 0.0 | 0.0 | 0.00 | 0.00 | 0.00 | 48 | 1012.7 |
| 20260905230519 | 93 | 157 | 0.0 | 0.0 | 0.00 | 0.00 | 0.00 | 49 | 1012.7 |
| 20260905230041 | 93 | 156 | 0.0 | 0.0 | 0.00 | 0.00 | 0.00 | 50 | 1012.5 |
| 20260905225516 | 93 | 144 | 0.0 | 0.0 | 0.00 | 0.00 | 0.00 | 51 | 1012.6 |
| 20260905225016 | 93 | 163 | 0.0 | 0.0 | 0.00 | 0.00 | 0.00 | 49 | 1012.7 |
| 20260905224547 | 93 | 161 | 0.0 | 0.0 | 0.00 | 0.00 | 0.00 | 48 | 1012.6 |
| 20260905224021 | 93 | 167 | 0.0 | 0.0 | 0.00 | 0.00 | 0.00 | 48 | 1012.5 |
| 20260905223517 | 94 | 182 | 0.0 | 0.0 | 0.00 | 0.00 | 0.00 | 48 | 1012.5 |
| 20260905223047 | 94 | 167 | 0.0 | 0.9 | 0.00 | 0.00 | 0.00 | 47 | 1012.6 |
| 20260905222518 | 94 | 171 | 0.0 | 0.9 | 0.00 | 0.00 | 0.00 | 45 | 1012.7 |
| 20260905222018 | 94 | 169 | 0.0 | 0.0 | 0.00 | 0.00 | 0.00 | 46 | 1012.7 |
| 20260905221551 | 95 | 168 | 0.0 | 0.0 | 0.00 | 0.00 | 0.00 | 45 | 1012.8 |
| 20260905221020 | 95 | 170 | 0.0 | 0.9 | 0.00 | 0.00 | 0.00 | 43 | 1012.8 |
| 20260905220518 | 95 | 146 | 0.0 | 0.9 | 0.00 | 0.00 | 0.00 | 43 | 1012.9 |
| 20260905220047 | 95 | 161 | 0.0 | 0.0 | 0.00 | 0.00 | 0.00 | 43 | 1012.8 |
| 20260905215521 | 95 | 169 | 0.0 | 4.3 | 0.00 | 0.00 | 0.00 | 45 | 1012.8 |
| 20260905215019 | 95 | 171 | 0.0 | 4.3 | 0.00 | 0.00 | 0.00 | 45 | 1012.8 |
| 20260905214544 | 96 | 182 | 2.6 | 5.2 | 0.00 | 0.00 | 0.00 | 43 | 1012.9 |
| 20260905214017 | 96 | 169 | 3.5 | 7.8 | 0.00 | 0.00 | 0.00 | 42 | 1012.9 |
| 20260905213519 | 97 | 192 | 2.6 | 7.8 | 0.00 | 0.00 | 0.00 | 42 | 1013.1 |
| 20260905213054 | 97 | 203 | 3.5 | 7.0 | 0.00 | 0.00 | 0.00 | 40 | 1013.0 |
| 20260905212518 | 98 | 143 | 3.5 | 7.0 | 0.00 | 0.00 | 0.00 | 40 | 1012.9 |
| 20260905212017 | 98 | 167 | 2.6 | 8.7 | 0.00 | 0.00 | 0.00 | 40 | 1013.0 |
| 20260905211548 | 99 | 195 | 4.3 | 8.7 | 0.00 | 0.00 | 0.00 | 38 | 1013.2 |
| 20260905211019 | 100 | 169 | 3.5 | 8.7 | 0.00 | 0.00 | 0.00 | 39 | 1013.1 |
| 20260905210518 | 100 | 217 | 4.3 | 9.6 | 0.00 | 0.00 | 0.00 | 41 | 1013.1 |
| 20260905210045 | 99 | 163 | 2.6 | 9.6 | 0.00 | 0.00 | 0.00 | 39 | 1013.1 |
| 20260905205518 | 99 | 157 | 5.2 | 9.6 | 0.00 | 0.00 | 0.00 | 39 | 1013.1 |
| 20260905205018 | 99 | 143 | 4.3 | 9.6 | 0.00 | 0.00 | 0.00 | 39 | 1013.1 |
| 20260905204543 | 99 | 203 | 5.2 | 8.7 | 0.00 | 0.00 | 0.00 | 40 | 1013.2 |
| 20260905204019 | 99 | 180 | 0.0 | 7.8 | 0.00 | 0.00 | 0.00 | 40 | 1013.2 |
| 20260905203518 | 99 | 228 | 2.6 | 8.7 | 0.00 | 0.00 | 0.00 | 41 | 1013.3 |
| 20260905203055 | 99 | 178 | 4.3 | 11.3 | 0.00 | 0.00 | 0.00 | 39 | 1013.4 |
| 20260905202521 | 100 | 171 | 6.1 | 11.3 | 0.00 | 0.00 | 0.00 | 38 | 1013.4 |
| 20260905202020 | 100 | 180 | 5.2 | 8.7 | 0.00 | 0.00 | 0.00 | 38 | 1013.4 |
| 20260905201556 | 100 | 138 | 5.2 | 8.7 | 0.00 | 0.00 | 0.00 | 39 | 1013.6 |
| 20260905201017 | 101 | 200 | 4.3 | 10.4 | 0.00 | 0.00 | 0.00 | 38 | 1013.8 |
| 20260905200520 | 101 | 146 | 3.5 | 10.4 | 0.00 | 0.00 | 0.00 | 38 | 1014.0 |
| 20260905200046 | 100 | 133 | 6.1 | 9.6 | 0.00 | 0.00 | 0.00 | 38 | 1014.1 |
| 20260905195517 | 101 | 159 | 4.3 | 9.6 | 0.00 | 0.00 | 0.00 | 39 | 1014.2 |
| 20260905195021 | 100 | 195 | 3.5 | 7.8 | 0.00 | 0.00 | 0.00 | 39 | 1014.3 |
| 20260905194552 | 101 | 259 | 5.2 | 7.8 | 0.00 | 0.00 | 0.00 | 40 | 1014.3 |
| 20260905194019 | 101 | 190 | 2.6 | 6.1 | 0.00 | 0.00 | 0.00 | 38 | 1014.4 |
| 20260905193517 | 101 | 216 | 0.0 | 7.0 | 0.00 | 0.00 | 0.00 | 38 | 1014.4 |
| 20260905193048 | 100 | 222 | 3.5 | 7.8 | 0.00 | 0.00 | 0.00 | 40 | 1014.5 |
| 20260905192519 | 101 | 217 | 5.2 | 8.7 | 0.00 | 0.00 | 0.00 | 41 | 1014.6 |
| 20260905192019 | 100 | 249 | 2.6 | 7.8 | 0.00 | 0.00 | 0.00 | 42 | 1014.6 |
| 20260905191544 | 100 | 204 | 4.3 | 7.8 | 0.00 | 0.00 | 0.00 | 42 | 1014.6 |